Time;durP1;ratioP1;P1;durP2;ratioP2;P2;SDS_P1;SDS_P2;PMS_P1;PMS_P2;Temp;Humidity;BMP_temperature;BMP_pressure;BME280_temperature;BME280_humidity;BME280_pressure;Samples;Min_cycle;Max_cycle;Signal;HPM_P1;HPM_P2
2023/11/11 00:01:56;;;;;;;7.20;1.92;;;14.70;80.30;;;;;;5056106;28;20126;-82
2023/11/11 00:04:23;;;;;;;7.05;1.13;;;14.60;80.20;;;;;;5058439;28;20119;-83
2023/11/11 00:06:49;;;;;;;5.50;1.30;;;14.60;80.50;;;;;;5061776;28;20029;-83
2023/11/11 00:09:15;;;;;;;4.32;1.13;;;14.60;80.70;;;;;;5058210;28;20029;-83
2023/11/11 00:11:43;;;;;;;6.97;1.50;;;14.50;80.50;;;;;;5062226;28;20104;-83
2023/11/11 00:14:09;;;;;;;9.95;1.77;;;14.50;80.80;;;;;;5056047;28;20424;-81
2023/11/11 00:16:35;;;;;;;6.93;1.60;;;14.50;80.90;;;;;;5055754;28;20103;-84
2023/11/11 00:19:01;;;;;;;10.40;1.75;;;14.40;81.00;;;;;;5054541;28;20115;-83
2023/11/11 00:21:27;;;;;;;6.35;1.30;;;14.30;81.00;;;;;;5056453;28;20055;-83
2023/11/11 00:23:56;;;;;;;7.80;1.85;;;14.30;81.40;;;;;;5055425;28;20471;-84
2023/11/11 00:26:22;;;;;;;6.43;1.45;;;14.30;81.50;;;;;;5055369;28;20400;-82
2023/11/11 00:28:48;;;;;;;8.07;1.83;;;14.20;81.40;;;;;;5055373;28;20082;-82
2023/11/11 00:31:15;;;;;;;8.27;1.50;;;14.20;81.80;;;;;;5058285;28;20032;-83
2023/11/11 00:33:42;;;;;;;5.63;1.50;;;14.20;82.20;;;;;;5058873;28;20029;-83
2023/11/11 00:36:09;;;;;;;4.45;1.40;;;14.20;82.20;;;;;;5070850;28;20033;-82
2023/11/11 00:38:36;;;;;;;8.05;1.58;;;14.20;82.20;;;;;;5078190;28;20040;-83
2023/11/11 00:41:03;;;;;;;4.72;1.30;;;14.20;82.40;;;;;;5061064;28;20041;-83
2023/11/11 00:43:29;;;;;;;5.85;1.63;;;14.20;82.50;;;;;;5056165;28;20029;-83
2023/11/11 00:45:55;;;;;;;9.80;1.80;;;14.10;82.70;;;;;;5055247;28;20033;-83
2023/11/11 00:48:21;;;;;;;4.10;1.17;;;14.10;83.00;;;;;;5055151;28;20059;-83
2023/11/11 00:50:47;;;;;;;4.82;1.48;;;14.10;83.30;;;;;;5053971;28;20107;-83
2023/11/11 00:53:14;;;;;;;8.38;1.50;;;14.10;83.00;;;;;;5055163;28;20382;-83
2023/11/11 00:55:40;;;;;;;6.72;1.70;;;14.00;83.40;;;;;;5053364;28;20500;-82
2023/11/11 00:58:05;;;;;;;8.82;2.22;;;14.00;83.60;;;;;;5054238;28;20044;-82
2023/11/11 01:00:31;;;;;;;8.20;1.85;;;14.00;83.60;;;;;;5054880;28;20037;-83
2023/11/11 01:02:58;;;;;;;6.13;1.42;;;13.90;83.80;;;;;;5054808;28;20052;-81
2023/11/11 01:05:25;;;;;;;6.20;1.63;;;13.90;84.10;;;;;;5054382;28;20037;-82
2023/11/11 01:07:51;;;;;;;7.03;1.70;;;13.90;84.20;;;;;;5054777;28;20039;-82
2023/11/11 01:10:23;;;;;;;5.45;2.10;;;13.90;84.40;;;;;;5053550;28;20033;-82
2023/11/11 01:12:49;;;;;;;5.72;1.73;;;13.90;84.50;;;;;;5054443;28;20395;-82
2023/11/11 01:15:15;;;;;;;8.48;1.77;;;13.90;84.50;;;;;;5054506;28;20562;-82
2023/11/11 01:17:41;;;;;;;6.53;1.75;;;13.90;84.50;;;;;;5054188;28;20029;-83
2023/11/11 01:20:07;;;;;;;5.38;1.40;;;13.80;84.50;;;;;;5054430;28;20495;-83
2023/11/11 01:22:33;;;;;;;9.35;2.58;;;13.80;84.70;;;;;;5054190;28;20039;-83
2023/11/11 01:24:59;;;;;;;7.28;1.63;;;13.80;84.70;;;;;;5053857;28;20045;-81
2023/11/11 01:27:26;;;;;;;7.28;1.80;;;13.80;84.80;;;;;;5054519;28;20025;-82
2023/11/11 01:29:52;;;;;;;6.93;1.55;;;13.80;84.80;;;;;;5053870;28;20025;-82
2023/11/11 01:32:19;;;;;;;12.27;2.55;;;13.80;84.70;;;;;;5053595;28;20106;-81
2023/11/11 01:34:44;;;;;;;5.70;1.83;;;13.70;85.10;;;;;;5053835;28;20025;-81
2023/11/11 01:37:10;;;;;;;8.27;1.98;;;13.70;85.60;;;;;;5053801;28;20476;-83
2023/11/11 01:39:36;;;;;;;9.25;2.17;;;13.70;85.00;;;;;;5052337;28;20156;-83
2023/11/11 01:42:03;;;;;;;8.07;2.10;;;13.70;85.20;;;;;;5053790;28;20183;-83
2023/11/11 01:44:29;;;;;;;8.27;1.80;;;13.70;85.30;;;;;;5052940;28;20408;-82
2023/11/11 01:46:55;;;;;;;7.50;1.92;;;13.70;85.50;;;;;;5053664;28;20064;-83
2023/11/11 01:49:22;;;;;;;10.68;2.28;;;13.60;85.50;;;;;;5053824;28;20396;-81
2023/11/11 01:51:52;;;;;;;7.78;1.85;;;13.60;85.70;;;;;;5053986;28;20029;-81
2023/11/11 01:54:20;;;;;;;8.63;2.05;;;13.60;85.80;;;;;;5053609;28;20061;-83
2023/11/11 01:56:46;;;;;;;5.82;1.60;;;13.60;85.90;;;;;;5053547;28;20123;-82
2023/11/11 01:59:13;;;;;;;6.25;1.60;;;13.50;86.00;;;;;;5053367;28;20033;-81
2023/11/11 02:01:38;;;;;;;5.72;1.80;;;13.50;85.90;;;;;;5052922;28;20091;-83
2023/11/11 02:04:04;;;;;;;5.05;1.67;;;13.50;86.00;;;;;;5053317;28;20428;-81
2023/11/11 02:06:30;;;;;;;6.10;1.63;;;13.40;85.90;;;;;;5053220;28;20041;-82
2023/11/11 02:08:56;;;;;;;12.10;1.92;;;13.40;86.00;;;;;;5035228;28;20041;-78
2023/11/11 02:11:22;;;;;;;6.45;1.70;;;13.30;86.00;;;;;;5053148;28;20083;-81
2023/11/11 02:13:48;;;;;;;7.68;2.30;;;13.30;86.20;;;;;;5052932;28;20371;-81
2023/11/11 02:16:15;;;;;;;4.25;1.67;;;13.30;86.10;;;;;;5053077;28;20133;-83
2023/11/11 02:18:41;;;;;;;5.10;1.50;;;13.30;86.30;;;;;;5053285;28;20040;-82
2023/11/11 02:21:07;;;;;;;5.28;1.70;;;13.30;86.20;;;;;;5058077;28;20045;-81
2023/11/11 02:23:35;;;;;;;5.85;1.80;;;13.30;86.10;;;;;;5058224;28;20112;-84
2023/11/11 02:26:02;;;;;;;12.38;1.85;;;13.30;86.20;;;;;;5053549;28;20033;-82
2023/11/11 02:28:28;;;;;;;6.07;1.98;;;13.30;86.00;;;;;;5052928;28;20075;-81
2023/11/11 02:30:54;;;;;;;5.05;1.67;;;13.30;86.10;;;;;;5053309;28;20072;-80
2023/11/11 02:33:20;;;;;;;5.75;1.85;;;13.30;85.90;;;;;;5053265;28;20531;-82
2023/11/11 02:35:46;;;;;;;5.65;1.90;;;13.30;85.90;;;;;;5053724;28;20037;-83
2023/11/11 02:38:14;;;;;;;5.80;1.92;;;13.30;86.20;;;;;;5053097;28;20506;-82
2023/11/11 02:40:40;;;;;;;7.03;1.98;;;13.20;85.90;;;;;;5053350;28;20054;-82
2023/11/11 02:43:06;;;;;;;9.48;2.20;;;13.20;86.40;;;;;;5053452;28;20029;-82
2023/11/11 02:45:32;;;;;;;6.57;1.67;;;13.20;86.60;;;;;;5057515;28;20377;-82
2023/11/11 02:47:58;;;;;;;9.40;5.40;;;13.20;86.70;;;;;;5064440;28;20037;-83
2023/11/11 02:50:24;;;;;;;8.40;2.15;;;13.20;86.80;;;;;;5059168;28;20029;-83
2023/11/11 02:52:50;;;;;;;7.28;1.92;;;13.10;86.80;;;;;;5056245;28;20037;-83
2023/11/11 02:55:18;;;;;;;8.40;1.95;;;13.10;86.80;;;;;;5052140;28;20040;-83
2023/11/11 02:57:47;;;;;;;5.25;2.00;;;13.10;86.90;;;;;;5052651;28;20033;-83
2023/11/11 03:00:13;;;;;;;12.05;2.30;;;13.10;86.70;;;;;;5052413;28;20396;-83
2023/11/11 03:02:40;;;;;;;7.28;1.85;;;13.20;87.20;;;;;;5052440;28;20086;-82
2023/11/11 03:05:07;;;;;;;6.13;1.77;;;13.20;87.20;;;;;;5052725;28;20056;-83
2023/11/11 03:07:33;;;;;;;8.70;2.60;;;13.20;87.10;;;;;;5052845;28;20038;-82
2023/11/11 03:10:05;;;;;;;9.32;2.05;;;13.20;87.60;;;;;;5052760;28;20033;-82
2023/11/11 03:12:32;;;;;;;7.82;1.98;;;13.20;87.20;;;;;;5055788;28;20032;-81
2023/11/11 03:14:59;;;;;;;6.82;2.00;;;13.20;87.50;;;;;;5057083;28;20401;-82
2023/11/11 03:17:29;;;;;;;7.47;2.35;;;13.20;87.30;;;;;;5065179;28;20021;-82
2023/11/11 03:20:03;;;;;;;7.82;2.05;;;13.20;87.10;;;;;;5075971;28;20024;-82
2023/11/11 03:22:29;;;;;;;9.23;1.88;;;13.20;87.20;;;;;;5056185;28;20037;-82
2023/11/11 03:24:55;;;;;;;5.25;1.95;;;13.10;87.20;;;;;;5052665;28;20040;-83
2023/11/11 03:27:20;;;;;;;4.15;1.50;;;13.10;87.30;;;;;;5052503;28;20118;-81
2023/11/11 03:29:46;;;;;;;10.27;2.35;;;13.10;87.40;;;;;;5052236;28;20448;-82
2023/11/11 03:32:12;;;;;;;7.10;1.85;;;13.10;87.20;;;;;;5052478;28;20037;-81
2023/11/11 03:34:37;;;;;;;5.95;1.52;;;13.10;87.20;;;;;;5052422;28;20499;-81
2023/11/11 03:37:03;;;;;;;7.32;1.88;;;13.10;87.30;;;;;;5052493;28;20041;-82
2023/11/11 03:39:32;;;;;;;6.20;1.90;;;13.00;87.40;;;;;;5052326;28;20033;-83
2023/11/11 03:41:58;;;;;;;6.03;2.00;;;13.00;87.10;;;;;;5052163;28;20147;-83
2023/11/11 03:44:24;;;;;;;9.65;2.20;;;13.00;87.50;;;;;;5052253;28;20485;-81
2023/11/11 03:46:50;;;;;;;12.13;2.15;;;12.90;87.50;;;;;;5052180;28;20133;-82
2023/11/11 03:49:16;;;;;;;6.32;1.85;;;12.90;87.60;;;;;;5052274;28;20112;-82
2023/11/11 03:51:41;;;;;;;6.95;1.80;;;12.90;87.70;;;;;;5052356;28;20550;-83
2023/11/11 03:54:07;;;;;;;9.38;2.35;;;12.80;87.50;;;;;;5052026;28;20033;-83
2023/11/11 03:56:33;;;;;;;6.47;1.75;;;12.80;87.70;;;;;;5052045;28;20045;-83
2023/11/11 03:58:58;;;;;;;9.60;2.40;;;12.80;87.90;;;;;;5052143;28;20029;-83
2023/11/11 04:01:24;;;;;;;7.00;1.85;;;12.80;87.80;;;;;;5050633;28;20049;-82
2023/11/11 04:03:50;;;;;;;7.68;1.80;;;12.80;87.70;;;;;;5052217;28;20037;-82
2023/11/11 04:06:16;;;;;;;8.05;2.58;;;12.70;88.00;;;;;;5052845;28;20427;-82
2023/11/11 04:08:42;;;;;;;8.63;2.67;;;12.70;88.60;;;;;;5055431;28;20112;-81
2023/11/11 04:11:08;;;;;;;8.25;2.47;;;12.70;87.90;;;;;;5055871;28;20083;-81
2023/11/11 04:13:37;;;;;;;5.95;2.08;;;12.70;88.10;;;;;;5055253;28;20110;-81
2023/11/11 04:16:04;;;;;;;12.43;2.40;;;12.70;88.30;;;;;;5054552;28;20112;-82
2023/11/11 04:18:32;;;;;;;7.22;2.22;;;12.70;88.20;;;;;;5055485;28;20026;-81
2023/11/11 04:20:59;;;;;;;5.30;2.25;;;12.70;88.70;;;;;;5054345;28;20052;-81
2023/11/11 04:23:26;;;;;;;5.38;2.40;;;12.70;88.60;;;;;;5055949;28;20033;-82
2023/11/11 04:25:53;;;;;;;6.82;2.88;;;12.70;88.80;;;;;;5055879;28;20033;-81
2023/11/11 04:28:19;;;;;;;8.52;2.50;;;12.60;88.70;;;;;;5055589;28;20029;-82
2023/11/11 04:30:45;;;;;;;8.35;2.90;;;12.60;88.90;;;;;;5068557;28;20035;-82
2023/11/11 04:33:11;;;;;;;7.15;2.67;;;12.60;89.10;;;;;;5055513;28;20033;-82
2023/11/11 04:35:37;;;;;;;8.48;3.45;;;12.50;89.10;;;;;;5037564;28;20080;-82
2023/11/11 04:38:08;;;;;;;11.40;2.60;;;12.50;89.40;;;;;;5055165;28;20029;-83
2023/11/11 04:40:35;;;;;;;7.68;2.72;;;12.50;89.60;;;;;;5055032;28;20547;-82
2023/11/11 04:43:01;;;;;;;7.25;2.50;;;12.40;89.60;;;;;;5055310;28;20029;-82
2023/11/11 04:45:27;;;;;;;10.45;2.83;;;12.40;90.10;;;;;;5055137;28;20048;-83
2023/11/11 04:47:53;;;;;;;7.97;2.67;;;12.40;89.90;;;;;;5055202;28;20025;-82
2023/11/11 04:50:19;;;;;;;8.75;2.88;;;12.40;90.00;;;;;;5055043;28;20092;-83
2023/11/11 04:52:45;;;;;;;8.07;2.83;;;12.40;90.00;;;;;;5054930;28;20033;-83
2023/11/11 04:55:11;;;;;;;10.70;2.47;;;12.30;90.00;;;;;;5055051;28;20393;-82
2023/11/11 04:57:37;;;;;;;9.77;2.38;;;12.30;90.00;;;;;;5055129;28;20033;-82
2023/11/11 05:00:06;;;;;;;8.80;2.65;;;12.30;90.20;;;;;;5054730;28;20086;-83
2023/11/11 05:02:32;;;;;;;12.60;2.97;;;12.20;90.10;;;;;;5053501;28;20029;-82
2023/11/11 05:04:58;;;;;;;9.75;2.35;;;12.30;90.20;;;;;;5053380;28;20106;-82
2023/11/11 05:07:23;;;;;;;10.10;2.92;;;12.20;90.00;;;;;;5054900;28;20477;-82
2023/11/11 05:09:49;;;;;;;7.05;2.67;;;12.10;90.10;;;;;;5054555;28;20025;-83
2023/11/11 05:12:16;;;;;;;8.32;2.30;;;12.10;90.30;;;;;;5054769;28;20037;-82
2023/11/11 05:14:42;;;;;;;7.50;2.33;;;12.10;90.20;;;;;;5054474;28;20123;-82
2023/11/11 05:17:09;;;;;;;6.63;2.22;;;12.00;90.30;;;;;;5054862;28;20121;-83
2023/11/11 05:19:35;;;;;;;9.73;2.70;;;12.00;90.30;;;;;;5055105;28;20499;-81
2023/11/11 05:22:02;;;;;;;6.85;2.33;;;12.00;90.30;;;;;;5054791;28;20041;-82
2023/11/11 05:24:29;;;;;;;7.90;2.20;;;12.00;90.30;;;;;;5054582;28;20041;-82
2023/11/11 05:26:55;;;;;;;11.25;2.83;;;12.00;90.40;;;;;;5054720;28;20123;-82
2023/11/11 05:29:21;;;;;;;9.60;3.20;;;12.00;90.40;;;;;;5056839;28;20441;-83
2023/11/11 05:31:47;;;;;;;8.43;2.50;;;12.00;90.40;;;;;;5058160;28;20095;-81
2023/11/11 05:34:13;;;;;;;7.32;2.80;;;12.00;90.40;;;;;;5057579;28;20446;-82
2023/11/11 05:36:42;;;;;;;15.48;3.47;;;12.00;90.40;;;;;;5055042;28;20029;-82
2023/11/11 05:39:09;;;;;;;7.47;2.20;;;11.90;90.40;;;;;;5054030;28;20075;-82
2023/11/11 05:41:36;;;;;;;9.75;2.72;;;11.90;90.40;;;;;;5053840;28;20131;-82
2023/11/11 05:44:05;;;;;;;7.47;2.28;;;11.80;90.50;;;;;;5053703;28;20021;-83
2023/11/11 05:46:31;;;;;;;12.45;2.50;;;11.80;90.50;;;;;;5053868;28;20057;-83
2023/11/11 05:48:56;;;;;;;10.15;2.95;;;11.90;90.50;;;;;;5053862;28;20548;-81
2023/11/11 05:51:24;;;;;;;9.95;2.90;;;11.90;90.40;;;;;;5054022;28;20110;-82
2023/11/11 05:53:50;;;;;;;14.20;2.50;;;11.90;90.50;;;;;;5054094;28;20021;-82
2023/11/11 05:56:17;;;;;;;10.20;2.92;;;12.00;90.50;;;;;;5055118;28;20116;-83
2023/11/11 05:58:43;;;;;;;10.50;3.35;;;12.00;90.50;;;;;;5060670;28;20033;-81
2023/11/11 06:01:09;;;;;;;7.15;2.20;;;12.00;90.40;;;;;;5068378;28;20092;-81
2023/11/11 06:03:36;;;;;;;10.38;2.78;;;12.10;90.40;;;;;;5075196;28;20063;-81
2023/11/11 06:06:02;;;;;;;8.48;2.85;;;12.00;90.40;;;;;;5076368;28;20048;-84
2023/11/11 06:08:28;;;;;;;8.48;2.50;;;12.10;90.40;;;;;;5057095;28;20078;-82
2023/11/11 06:10:53;;;;;;;11.57;2.72;;;12.20;90.70;;;;;;5053592;28;20029;-81
2023/11/11 06:13:20;;;;;;;7.57;2.45;;;12.20;90.30;;;;;;5053647;28;20040;-81
2023/11/11 06:15:45;;;;;;;9.95;2.53;;;12.20;90.30;;;;;;5053205;28;20022;-82
2023/11/11 06:18:12;;;;;;;13.88;2.45;;;12.30;90.20;;;;;;5053514;28;20039;-83
2023/11/11 06:20:38;;;;;;;9.85;2.53;;;12.30;90.20;;;;;;5053425;28;20064;-82
2023/11/11 06:23:04;;;;;;;10.23;3.03;;;12.40;90.10;;;;;;5053444;28;20083;-82
2023/11/11 06:25:31;;;;;;;13.02;2.53;;;12.50;90.10;;;;;;5053139;28;20049;-83
2023/11/11 06:27:58;;;;;;;9.25;2.85;;;12.60;90.00;;;;;;5053418;28;20029;-82
2023/11/11 06:30:24;;;;;;;8.70;2.42;;;12.90;89.90;;;;;;5053174;28;20031;-82
2023/11/11 06:32:51;;;;;;;9.05;2.95;;;13.20;89.10;;;;;;5053371;28;20128;-82
2023/11/11 06:35:18;;;;;;;13.15;3.78;;;13.50;88.00;;;;;;5053225;28;20319;-83
2023/11/11 06:37:44;;;;;;;9.23;3.10;;;13.50;87.80;;;;;;5053107;28;20033;-82
2023/11/11 06:40:10;;;;;;;13.63;3.35;;;13.60;87.70;;;;;;5052780;28;20044;-82
2023/11/11 06:42:36;;;;;;;11.95;3.60;;;13.50;87.60;;;;;;5052889;28;20025;-83
2023/11/11 06:45:03;;;;;;;12.23;2.90;;;13.40;87.60;;;;;;5053045;28;20056;-82
2023/11/11 06:47:29;;;;;;;11.75;3.38;;;13.50;87.90;;;;;;5051948;28;20683;-82
2023/11/11 06:49:55;;;;;;;11.52;4.43;;;13.50;88.50;;;;;;5053102;28;20029;-82
2023/11/11 06:52:20;;;;;;;10.98;3.42;;;13.50;87.70;;;;;;5034197;28;20072;-82
2023/11/11 06:54:46;;;;;;;13.40;3.35;;;13.50;87.40;;;;;;5032774;28;20029;-84
2023/11/11 06:57:12;;;;;;;8.65;2.97;;;13.50;87.60;;;;;;5033174;28;20444;-84
2023/11/11 06:59:38;;;;;;;8.80;3.10;;;13.40;87.70;;;;;;5033520;28;20052;-83
2023/11/11 07:02:05;;;;;;;11.40;3.10;;;13.30;87.50;;;;;;5032887;28;20497;-82
2023/11/11 07:04:32;;;;;;;10.95;3.97;;;13.30;87.90;;;;;;5033086;28;20168;-84
2023/11/11 07:06:57;;;;;;;9.50;3.78;;;13.30;88.00;;;;;;5033097;28;20112;-83
2023/11/11 07:09:23;;;;;;;22.65;4.38;;;13.30;88.00;;;;;;5032910;28;20101;-83
2023/11/11 07:11:49;;;;;;;12.60;3.95;;;13.30;87.80;;;;;;5033656;28;20038;-84
2023/11/11 07:14:15;;;;;;;16.15;3.45;;;13.30;87.70;;;;;;5034045;28;20029;-83
2023/11/11 07:16:41;;;;;;;10.13;3.35;;;13.30;87.70;;;;;;5046185;28;20077;-82
2023/11/11 07:19:07;;;;;;;12.25;3.40;;;13.40;87.90;;;;;;5053815;28;20112;-84
2023/11/11 07:21:33;;;;;;;14.07;3.88;;;13.40;87.70;;;;;;5051653;28;20120;-84
2023/11/11 07:23:59;;;;;;;13.40;3.47;;;13.40;87.70;;;;;;5053482;28;20049;-82
2023/11/11 07:26:28;;;;;;;16.52;3.65;;;13.40;87.40;;;;;;5054044;28;20037;-84
2023/11/11 07:28:54;;;;;;;8.18;3.30;;;13.40;87.00;;;;;;5052581;28;20128;-84
2023/11/11 07:31:22;;;;;;;10.35;3.42;;;13.40;87.30;;;;;;5052185;28;20133;-83
2023/11/11 07:33:48;;;;;;;10.38;2.85;;;13.30;87.40;;;;;;5052453;28;20170;-82
2023/11/11 07:36:13;;;;;;;16.42;4.00;;;13.40;87.20;;;;;;5050548;28;20045;-84
2023/11/11 07:38:40;;;;;;;19.17;3.50;;;13.40;87.40;;;;;;5051822;28;20041;-82
2023/11/11 07:41:07;;;;;;;8.32;3.38;;;13.60;87.40;;;;;;5052040;28;20068;-84
2023/11/11 07:43:33;;;;;;;11.38;3.22;;;13.70;86.90;;;;;;5055941;28;20065;-84
2023/11/11 07:46:00;;;;;;;10.98;3.70;;;13.70;86.90;;;;;;5055852;28;20079;-83
2023/11/11 07:48:27;;;;;;;11.80;3.58;;;13.80;86.70;;;;;;5054455;28;20350;-83
2023/11/11 07:50:53;;;;;;;10.52;3.72;;;13.90;86.70;;;;;;5037730;28;20040;-82
2023/11/11 07:53:19;;;;;;;12.27;3.90;;;14.00;86.50;;;;;;5055357;28;20105;-83
2023/11/11 07:55:45;;;;;;;14.48;4.18;;;14.00;86.20;;;;;;5055187;28;20036;-83
2023/11/11 07:58:13;;;;;;;14.93;4.15;;;14.10;86.40;;;;;;5055050;28;20037;-84
2023/11/11 08:00:39;;;;;;;11.32;4.43;;;14.10;86.00;;;;;;5055260;28;20055;-84
2023/11/11 08:03:05;;;;;;;21.40;4.05;;;14.10;86.20;;;;;;5056135;28;20497;-83
2023/11/11 08:05:32;;;;;;;13.57;3.70;;;14.20;86.90;;;;;;5055172;28;20067;-84
2023/11/11 08:07:59;;;;;;;15.30;3.88;;;14.20;86.30;;;;;;5060126;28;20076;-82
2023/11/11 08:10:27;;;;;;;17.83;4.22;;;14.20;86.20;;;;;;5054174;28;20037;-80
2023/11/11 08:12:53;;;;;;;17.23;5.35;;;14.30;86.00;;;;;;5053937;28;20037;-81
2023/11/11 08:15:20;;;;;;;16.95;4.85;;;14.40;85.90;;;;;;5055355;28;20029;-81
2023/11/11 08:17:49;;;;;;;19.17;4.78;;;14.50;85.90;;;;;;5055110;28;20492;-80
2023/11/11 08:20:18;;;;;;;18.05;5.40;;;14.50;85.70;;;;;;5054666;28;20087;-82
2023/11/11 08:22:49;;;;;;;26.45;14.75;;;14.60;85.70;;;;;;5054942;28;20437;-81
2023/11/11 08:25:16;;;;;;;20.00;6.90;;;14.70;85.30;;;;;;5054872;28;20120;-81
2023/11/11 08:27:43;;;;;;;14.85;5.18;;;14.80;85.30;;;;;;5055487;28;20068;-80
2023/11/11 08:30:10;;;;;;;15.30;4.93;;;14.90;85.10;;;;;;5054635;28;20039;-78
2023/11/11 08:32:37;;;;;;;11.07;4.25;;;15.00;85.10;;;;;;5037015;28;20450;-81
2023/11/11 08:35:05;;;;;;;20.00;4.85;;;15.10;84.60;;;;;;5055060;28;20064;-79
2023/11/11 08:37:32;;;;;;;15.77;3.70;;;15.20;84.50;;;;;;5036833;28;20045;-81
2023/11/11 08:39:58;;;;;;;15.15;4.20;;;15.20;84.20;;;;;;5050410;28;20119;-82
2023/11/11 08:42:24;;;;;;;14.48;4.43;;;15.30;83.90;;;;;;5039287;28;20041;-89
2023/11/11 08:44:51;;;;;;;17.05;4.65;;;15.40;83.70;;;;;;5040886;28;20039;-81
2023/11/11 08:47:17;;;;;;;18.70;4.05;;;15.40;83.20;;;;;;5044747;28;20033;-81
2023/11/11 08:49:43;;;;;;;12.63;3.65;;;15.50;82.90;;;;;;5044246;28;20104;-82
2023/11/11 08:52:09;;;;;;;19.45;3.55;;;15.50;83.00;;;;;;5044510;28;20077;-81
2023/11/11 08:54:35;;;;;;;20.10;4.90;;;15.60;82.70;;;;;;5044751;28;20055;-83
2023/11/11 08:57:01;;;;;;;14.32;3.72;;;15.60;82.50;;;;;;5048478;28;20029;-79
2023/11/11 08:59:26;;;;;;;20.75;4.70;;;15.60;82.60;;;;;;5042196;28;20030;-85
2023/11/11 09:01:52;;;;;;;15.52;4.78;;;15.70;82.40;;;;;;5039949;28;20124;-81
2023/11/11 09:04:18;;;;;;;29.05;6.40;;;15.70;82.40;;;;;;5037165;28;20034;-85
2023/11/11 09:06:44;;;;;;;16.50;4.57;;;15.80;82.60;;;;;;5035150;28;20084;-86
2023/11/11 09:09:14;;;;;;;12.23;4.15;;;15.80;82.40;;;;;;5038425;28;20075;-84
2023/11/11 09:11:40;;;;;;;9.93;3.85;;;15.90;82.30;;;;;;5054200;28;20033;-85
2023/11/11 09:14:06;;;;;;;16.65;5.40;;;15.90;82.00;;;;;;5053994;28;20025;-80
2023/11/11 09:16:32;;;;;;;19.58;4.93;;;16.00;81.90;;;;;;5037273;28;20047;-82
2023/11/11 09:19:03;;;;;;;19.63;4.65;;;16.00;81.60;;;;;;5053587;28;20147;-79
2023/11/11 09:21:29;;;;;;;19.98;5.38;;;16.10;81.40;;;;;;5054500;28;20048;-78
2023/11/11 09:23:55;;;;;;;13.70;5.28;;;16.10;81.50;;;;;;5053874;28;20049;-77
2023/11/11 09:26:21;;;;;;;17.40;4.85;;;16.10;81.30;;;;;;5053793;28;20043;-79
2023/11/11 09:28:49;;;;;;;16.30;4.50;;;16.10;81.60;;;;;;5035345;28;20033;-81
2023/11/11 09:31:15;;;;;;;16.98;4.82;;;16.20;81.60;;;;;;5053276;28;20370;-79
2023/11/11 09:33:42;;;;;;;14.65;4.20;;;16.20;81.30;;;;;;5035650;28;20404;-80
2023/11/11 09:36:08;;;;;;;15.30;4.90;;;16.20;81.30;;;;;;5053053;28;20025;-79
2023/11/11 09:38:33;;;;;;;21.02;5.57;;;16.30;81.30;;;;;;5053080;28;20107;-79
2023/11/11 09:41:00;;;;;;;13.57;4.22;;;16.40;81.30;;;;;;5053305;28;20041;-80
2023/11/11 09:43:26;;;;;;;23.17;4.70;;;16.50;80.90;;;;;;5053286;28;20033;-80
2023/11/11 09:45:53;;;;;;;17.05;4.93;;;16.60;80.60;;;;;;5053078;28;20033;-80
2023/11/11 09:48:19;;;;;;;18.30;5.07;;;16.80;80.40;;;;;;5052850;28;20475;-80
2023/11/11 09:50:45;;;;;;;18.00;4.45;;;17.00;79.80;;;;;;5052803;28;20108;-77
2023/11/11 09:53:13;;;;;;;13.50;4.55;;;17.10;78.70;;;;;;5052882;28;20037;-77
2023/11/11 09:55:40;;;;;;;16.27;4.78;;;17.30;78.30;;;;;;5051736;28;20032;-79
2023/11/11 09:58:07;;;;;;;12.20;3.22;;;17.40;77.80;;;;;;5031631;28;20061;-79
2023/11/11 10:00:33;;;;;;;15.00;4.15;;;17.40;76.20;;;;;;5031932;28;20040;-79
2023/11/11 10:02:59;;;;;;;15.77;3.80;;;17.40;76.30;;;;;;5032654;28;20045;-81
2023/11/11 10:05:25;;;;;;;10.82;3.53;;;17.30;75.70;;;;;;5032578;28;20086;-79
2023/11/11 10:07:51;;;;;;;13.55;3.50;;;17.20;75.60;;;;;;5031238;28;20061;-79
2023/11/11 10:10:18;;;;;;;13.98;3.55;;;17.00;75.40;;;;;;5032727;28;20063;-79
2023/11/11 10:12:44;;;;;;;12.65;3.35;;;17.00;75.50;;;;;;5032860;28;20033;-79
2023/11/11 10:15:10;;;;;;;16.52;3.65;;;17.00;75.30;;;;;;5032191;28;20034;-78
2023/11/11 10:17:39;;;;;;;12.10;3.45;;;17.00;75.20;;;;;;5032707;28;20040;-78
2023/11/11 10:20:15;;;;;;;55.75;35.42;;;17.00;74.80;;;;;;5014224;28;20183;-79
2023/11/11 10:22:45;;;;;;;23.23;6.82;;;17.00;74.60;;;;;;5032420;28;20511;-78
2023/11/11 10:25:20;;;;;;;14.75;3.55;;;17.00;74.00;;;;;;5032078;28;20072;-80
2023/11/11 10:27:56;;;;;;;13.63;2.83;;;17.00;73.30;;;;;;5031744;28;20021;-80
2023/11/11 10:30:24;;;;;;;10.48;2.78;;;17.00;72.70;;;;;;5032048;28;20033;-80
2023/11/11 10:32:54;;;;;;;12.63;3.08;;;17.20;72.30;;;;;;5032412;28;20453;-79
2023/11/11 10:35:21;;;;;;;10.68;3.13;;;17.40;71.50;;;;;;5032725;28;20037;-80
2023/11/11 10:37:47;;;;;;;15.43;3.03;;;17.70;70.70;;;;;;5032580;28;20033;-79
2023/11/11 10:40:17;;;;;;;10.93;3.13;;;17.90;70.30;;;;;;5032326;28;20038;-79
2023/11/11 10:42:49;;;;;;;13.63;3.10;;;18.10;69.40;;;;;;5032336;28;20084;-79
2023/11/11 10:45:16;;;;;;;13.38;2.92;;;18.20;68.60;;;;;;5032300;28;20104;-78
2023/11/11 10:47:45;;;;;;;8.52;2.25;;;18.30;67.60;;;;;;5032589;28;20400;-80
2023/11/11 10:50:13;;;;;;;14.70;3.03;;;18.30;67.00;;;;;;5032066;28;20038;-80
2023/11/11 10:52:40;;;;;;;9.18;2.10;;;18.30;67.10;;;;;;5032092;28;20088;-79
2023/11/11 10:55:10;;;;;;;13.73;3.35;;;18.20;66.10;;;;;;5032144;28;20431;-77
2023/11/11 10:57:42;;;;;;;11.57;2.63;;;18.30;65.60;;;;;;5032066;28;20393;-79
2023/11/11 11:00:24;;;;;;;10.52;2.67;;;18.40;65.40;;;;;;5031933;28;20048;-78
2023/11/11 11:02:52;;;;;;;15.55;2.90;;;18.60;65.40;;;;;;5032163;28;20366;-80
2023/11/11 11:05:54;;;;;;;15.00;2.65;;;18.80;64.90;;;;;;5031891;28;20038;-79
2023/11/11 11:08:43;;;;;;;11.13;2.47;;;18.90;65.00;;;;;;5015376;28;20041;-80
2023/11/11 11:11:17;;;;;;;12.38;2.72;;;18.70;64.30;;;;;;5030560;28;20041;-79
2023/11/11 11:13:45;;;;;;;15.57;2.35;;;18.50;64.10;;;;;;5032317;28;20029;-80
2023/11/11 11:16:26;;;;;;;10.60;2.67;;;18.30;63.90;;;;;;5033372;28;20061;-80
2023/11/11 11:18:56;;;;;;;17.27;2.83;;;18.20;64.00;;;;;;5018730;28;20382;-80
2023/11/11 11:21:22;;;;;;;12.45;2.47;;;18.20;63.90;;;;;;5036424;28;20041;-79
2023/11/11 11:23:50;;;;;;;14.32;2.55;;;18.20;63.50;;;;;;5036005;28;20467;-80
2023/11/11 11:26:28;;;;;;;13.20;2.50;;;18.20;63.40;;;;;;5036764;28;20065;-78
2023/11/11 11:29:15;;;;;;;13.02;2.58;;;18.30;63.60;;;;;;5018974;28;20398;-78
2023/11/11 11:32:08;;;;;;;16.45;3.22;;;18.30;63.70;;;;;;5036475;28;20055;-79
2023/11/11 11:34:55;;;;;;;11.55;2.67;;;18.40;63.90;;;;;;5036359;28;20044;-80
2023/11/11 11:37:21;;;;;;;12.82;2.70;;;18.50;63.40;;;;;;5035355;28;20050;-80
2023/11/11 11:39:50;;;;;;;15.02;3.33;;;18.70;63.20;;;;;;5035397;28;20040;-80
2023/11/11 11:42:24;;;;;;;12.48;2.60;;;18.70;62.90;;;;;;5035548;28;20045;-80
2023/11/11 11:44:57;;;;;;;14.27;3.00;;;18.60;63.20;;;;;;5035416;28;20037;-80
2023/11/11 11:47:27;;;;;;;17.15;3.33;;;18.50;63.50;;;;;;5035748;28;20030;-79
2023/11/11 11:49:53;;;;;;;15.25;3.80;;;18.50;63.70;;;;;;5035365;28;20039;-79
2023/11/11 11:52:20;;;;;;;13.77;3.22;;;18.50;63.40;;;;;;5035280;28;20393;-79
2023/11/11 11:54:46;;;;;;;8.50;2.50;;;18.60;63.50;;;;;;5035512;28;20079;-80
2023/11/11 11:57:14;;;;;;;10.50;2.55;;;18.60;62.90;;;;;;5035443;28;20034;-80
2023/11/11 11:59:44;;;;;;;11.63;3.10;;;18.70;63.00;;;;;;5035704;28;20037;-80
2023/11/11 12:02:13;;;;;;;19.58;3.45;;;18.70;62.90;;;;;;5035190;28;20438;-79
2023/11/11 12:04:39;;;;;;;9.57;2.45;;;18.70;63.00;;;;;;5035128;28;20033;-80
2023/11/11 12:07:07;;;;;;;12.38;2.60;;;18.90;62.90;;;;;;5035327;28;20036;-78
2023/11/11 12:09:35;;;;;;;11.50;3.13;;;18.90;62.70;;;;;;5035434;28;20088;-80
2023/11/11 12:12:09;;;;;;;15.98;2.50;;;18.90;62.30;;;;;;5035055;28;20033;-78
2023/11/11 12:14:35;;;;;;;11.18;2.78;;;18.90;62.20;;;;;;5035473;28;20323;-80
2023/11/11 12:17:01;;;;;;;11.05;2.65;;;19.00;62.50;;;;;;5034937;28;20572;-80
2023/11/11 12:19:27;;;;;;;12.68;3.25;;;19.00;62.80;;;;;;5035154;28;20119;-79
2023/11/11 12:21:53;;;;;;;9.73;2.78;;;19.10;62.10;;;;;;5035314;28;20049;-80
2023/11/11 12:24:25;;;;;;;11.07;2.83;;;19.10;62.30;;;;;;5034994;28;20050;-80
2023/11/11 12:26:53;;;;;;;12.10;3.03;;;19.20;62.10;;;;;;5034916;28;20065;-75
2023/11/11 12:29:20;;;;;;;11.02;2.85;;;19.20;62.00;;;;;;5034850;28;20064;-78
2023/11/11 12:31:53;;;;;;;14.90;4.07;;;19.30;62.10;;;;;;5034795;28;20037;-76
2023/11/11 12:34:21;;;;;;;;;;;19.30;62.10;;;;;;5035307;28;20040;-81
2023/11/11 12:36:47;;;;;;;19.10;3.75;;;19.40;61.80;;;;;;5046793;28;20003;-76
2023/11/11 12:39:14;;;;;;;13.90;3.65;;;19.40;62.40;;;;;;5054382;28;20524;-77
2023/11/11 12:41:51;;;;;;;16.77;3.45;;;19.40;62.30;;;;;;5054476;28;20128;-76